Time;durP1;ratioP1;P1;durP2;ratioP2;P2;SDS_P1;SDS_P2;PMS_P1;PMS_P2;Temp;Humidity;BMP_temperature;BMP_pressure;BME280_temperature;BME280_humidity;BME280_pressure;Samples;Min_cycle;Max_cycle;Signal;HPM_P1;HPM_P2
2023/06/15 00:02:20;;;;;;;6.50;5.87;;;16.60;89.70;;;;;;5047494;28;20251;-74
2023/06/15 00:04:46;;;;;;;6.90;6.17;;;16.60;90.10;;;;;;5046953;28;20181;-74
2023/06/15 00:07:11;;;;;;;8.30;5.90;;;16.60;90.10;;;;;;5050057;28;20181;-74
2023/06/15 00:09:37;;;;;;;7.77;6.03;;;16.60;90.10;;;;;;5047132;28;20609;-74
2023/06/15 00:12:03;;;;;;;6.10;5.60;;;16.50;90.20;;;;;;5049197;28;20251;-74
2023/06/15 00:14:29;;;;;;;6.27;5.77;;;16.30;90.20;;;;;;5044765;28;20657;-74
2023/06/15 00:16:55;;;;;;;7.13;5.85;;;16.50;90.40;;;;;;5047229;28;20220;-74
2023/06/15 00:19:21;;;;;;;6.40;5.90;;;16.60;90.90;;;;;;5046397;28;20521;-75
2023/06/15 00:21:48;;;;;;;5.97;5.55;;;16.40;90.60;;;;;;5046833;28;20694;-74
2023/06/15 00:24:17;;;;;;;6.95;6.25;;;16.60;90.80;;;;;;5046482;28;20250;-74
2023/06/15 00:26:46;;;;;;;6.30;5.80;;;16.70;90.90;;;;;;5045786;28;20220;-74
2023/06/15 00:29:11;;;;;;;7.03;6.03;;;16.30;90.70;;;;;;5046080;28;20737;-75
2023/06/15 00:31:37;;;;;;;6.70;6.10;;;16.50;91.00;;;;;;5044533;28;20232;-75
2023/06/15 00:34:03;;;;;;;7.03;5.77;;;16.60;91.10;;;;;;5048443;28;20268;-75
2023/06/15 00:36:29;;;;;;;6.47;5.87;;;16.40;90.90;;;;;;5048053;28;20658;-75
2023/06/15 00:38:54;;;;;;;6.63;6.03;;;16.60;91.00;;;;;;5048367;28;20466;-75
2023/06/15 00:41:21;;;;;;;6.63;6.13;;;16.50;90.90;;;;;;5046866;28;20280;-75
2023/06/15 00:43:46;;;;;;;6.05;5.55;;;16.50;91.10;;;;;;5045857;28;20275;-75
2023/06/15 00:46:13;;;;;;;6.57;6.07;;;16.60;91.20;;;;;;5050739;28;20455;-75
2023/06/15 00:48:39;;;;;;;6.90;6.20;;;16.50;91.00;;;;;;5048013;28;20197;-75
2023/06/15 00:51:07;;;;;;;6.82;6.13;;;16.70;91.00;;;;;;5041354;28;20236;-75
2023/06/15 00:53:33;;;;;;;6.88;6.28;;;16.70;91.00;;;;;;5047520;28;20228;-75
2023/06/15 00:55:59;;;;;;;7.03;6.20;;;16.40;90.80;;;;;;5048363;28;20178;-75
2023/06/15 00:58:26;;;;;;;6.82;5.93;;;16.70;90.80;;;;;;5050208;28;20683;-75
2023/06/15 01:00:53;;;;;;;7.03;6.20;;;16.50;90.80;;;;;;5045783;28;20741;-75
2023/06/15 01:03:20;;;;;;;6.53;5.93;;;16.50;90.70;;;;;;5043710;28;20194;-75
2023/06/15 01:05:52;;;;;;;6.72;6.05;;;16.50;90.80;;;;;;5043799;28;20277;-75
2023/06/15 01:08:20;;;;;;;6.80;6.15;;;16.40;90.80;;;;;;5047605;28;20213;-75
2023/06/15 01:10:46;;;;;;;6.20;5.70;;;16.70;91.00;;;;;;5047897;28;20294;-74
2023/06/15 01:13:13;;;;;;;6.40;5.90;;;16.30;90.70;;;;;;5046054;28;20224;-75
2023/06/15 01:15:40;;;;;;;6.30;5.80;;;16.40;90.90;;;;;;5047820;28;20182;-75
2023/06/15 01:18:07;;;;;;;6.30;5.70;;;16.50;91.30;;;;;;5044777;28;20658;-75
2023/06/15 01:20:39;;;;;;;7.60;6.57;;;16.60;91.90;;;;;;5045524;28;20244;-75
2023/06/15 01:23:40;;;;;;;6.20;5.70;;;16.40;91.60;;;;;;5047061;28;20279;-75
2023/06/15 01:26:08;;;;;;;6.90;6.30;;;16.40;91.60;;;;;;5041957;28;20207;-75
2023/06/15 01:28:35;;;;;;;7.18;6.57;;;16.50;91.70;;;;;;5047642;28;20185;-75
2023/06/15 01:31:01;;;;;;;6.38;5.78;;;16.50;91.70;;;;;;5046984;28;20212;-75
2023/06/15 01:33:27;;;;;;;7.03;6.43;;;16.20;91.60;;;;;;5050474;28;20510;-75
2023/06/15 01:35:53;;;;;;;7.20;6.00;;;16.20;91.70;;;;;;5045790;28;20543;-74
2023/06/15 01:38:23;;;;;;;6.40;5.80;;;16.30;92.00;;;;;;5049274;28;20458;-75
2023/06/15 01:40:51;;;;;;;7.25;6.18;;;16.30;92.20;;;;;;5043807;28;20228;-75
2023/06/15 01:43:20;;;;;;;6.03;5.47;;;16.30;92.40;;;;;;5046970;28;20260;-74
2023/06/15 01:45:47;;;;;;;6.55;6.00;;;16.30;92.50;;;;;;5051901;28;20181;-75
2023/06/15 01:48:13;;;;;;;6.72;6.13;;;16.10;92.60;;;;;;5050372;28;20186;-75
2023/06/15 01:50:41;;;;;;;6.53;6.03;;;16.00;92.70;;;;;;5047116;28;20259;-75
2023/06/15 01:53:07;;;;;;;6.85;6.18;;;16.20;92.80;;;;;;5051236;28;20173;-75
2023/06/15 01:55:34;;;;;;;5.88;5.38;;;16.00;92.60;;;;;;5050953;28;20708;-74
2023/06/15 01:58:00;;;;;;;6.10;5.60;;;16.20;92.80;;;;;;5051469;28;20382;-75
2023/06/15 02:00:26;;;;;;;5.97;5.43;;;16.10;92.80;;;;;;5050646;28;20287;-74
2023/06/15 02:02:52;;;;;;;6.53;5.93;;;16.20;93.20;;;;;;5050738;28;20184;-75
2023/06/15 02:05:18;;;;;;;7.03;6.07;;;16.00;92.80;;;;;;5051880;28;20182;-75
2023/06/15 02:07:44;;;;;;;5.97;5.47;;;16.10;93.00;;;;;;5051531;28;20553;-75
2023/06/15 02:10:10;;;;;;;6.50;5.90;;;15.90;92.90;;;;;;5051984;28;20667;-75
2023/06/15 02:12:36;;;;;;;6.18;5.78;;;16.20;93.40;;;;;;5048207;28;20210;-74
2023/06/15 02:15:02;;;;;;;6.70;6.10;;;15.90;93.40;;;;;;5049843;28;20185;-74
2023/06/15 02:17:33;;;;;;;7.60;6.13;;;15.80;93.80;;;;;;5051196;28;20186;-75
2023/06/15 02:19:59;;;;;;;5.82;5.32;;;15.90;94.10;;;;;;5050577;28;20211;-75
2023/06/15 02:22:25;;;;;;;7.20;6.50;;;15.90;93.80;;;;;;5049929;28;20245;-74
2023/06/15 02:24:50;;;;;;;6.60;5.82;;;15.80;93.70;;;;;;5048847;28;20193;-74
2023/06/15 02:27:16;;;;;;;6.77;6.10;;;15.90;94.00;;;;;;5048314;28;20196;-75
2023/06/15 02:29:42;;;;;;;6.67;6.07;;;15.90;94.00;;;;;;5046674;28;20272;-75
2023/06/15 02:32:09;;;;;;;6.90;6.40;;;15.60;94.10;;;;;;5050234;28;20946;-75
2023/06/15 02:34:36;;;;;;;6.90;6.20;;;15.70;94.10;;;;;;5040125;28;20178;-75
2023/06/15 02:37:02;;;;;;;6.50;6.00;;;15.60;94.20;;;;;;5049282;28;20178;-75
2023/06/15 02:39:28;;;;;;;6.67;6.17;;;15.70;94.30;;;;;;5049255;28;20260;-75
2023/06/15 02:41:54;;;;;;;6.80;6.30;;;15.80;94.90;;;;;;5049696;28;20491;-75
2023/06/15 02:44:21;;;;;;;6.60;6.10;;;15.50;94.50;;;;;;5048683;28;20658;-75
2023/06/15 02:46:46;;;;;;;6.43;5.93;;;15.50;94.50;;;;;;5047954;28;20189;-75
2023/06/15 02:49:12;;;;;;;6.53;5.93;;;15.50;94.60;;;;;;5047550;28;20193;-75
2023/06/15 02:51:39;;;;;;;6.60;6.10;;;15.50;94.70;;;;;;5049024;28;20209;-74
2023/06/15 02:54:05;;;;;;;7.78;5.97;;;15.60;94.80;;;;;;5047348;28;20185;-75
2023/06/15 02:56:34;;;;;;;7.10;6.40;;;15.40;95.00;;;;;;5048805;28;20186;-75
2023/06/15 02:59:00;;;;;;;6.50;6.00;;;15.30;95.10;;;;;;5047890;28;20224;-75
2023/06/15 03:01:38;;;;;;;6.90;6.20;;;15.40;95.40;;;;;;5048356;28;20240;-75
2023/06/15 03:04:09;;;;;;;7.93;7.22;;;15.20;95.30;;;;;;5047939;28;20181;-75
2023/06/15 03:06:38;;;;;;;6.50;6.00;;;15.30;95.70;;;;;;5047552;28;20198;-74
2023/06/15 03:09:06;;;;;;;6.65;5.85;;;15.00;95.80;;;;;;5049103;28;20189;-75
2023/06/15 03:11:32;;;;;;;7.10;6.53;;;15.30;96.00;;;;;;5047447;28;20739;-75
2023/06/15 03:13:58;;;;;;;6.03;5.60;;;15.00;96.10;;;;;;5047981;28;20185;-75
2023/06/15 03:16:25;;;;;;;6.60;6.10;;;15.10;96.20;;;;;;5048456;28;20185;-75
2023/06/15 03:18:52;;;;;;;6.60;6.00;;;15.00;96.70;;;;;;5048407;28;20190;-75
2023/06/15 03:21:20;;;;;;;6.45;5.82;;;15.00;96.70;;;;;;5044135;28;20293;-75
2023/06/15 03:23:45;;;;;;;7.25;6.65;;;15.00;96.60;;;;;;5047746;28;20236;-75
2023/06/15 03:26:11;;;;;;;6.97;6.30;;;14.90;96.60;;;;;;5050016;28;20673;-75
2023/06/15 03:28:38;;;;;;;6.10;5.60;;;15.10;96.70;;;;;;5045314;28;20182;-74
2023/06/15 03:31:05;;;;;;;6.43;5.93;;;14.50;96.70;;;;;;5047153;28;20213;-75
2023/06/15 03:33:31;;;;;;;7.47;6.78;;;14.70;97.10;;;;;;5048417;28;20189;-75
2023/06/15 03:35:57;;;;;;;7.00;6.40;;;14.90;97.20;;;;;;5045369;28;20217;-75
2023/06/15 03:38:23;;;;;;;6.25;5.75;;;14.70;96.90;;;;;;5042652;28;20444;-75
2023/06/15 03:40:49;;;;;;;6.57;5.93;;;14.80;97.00;;;;;;5045240;28;20201;-75
2023/06/15 03:43:15;;;;;;;7.20;6.55;;;15.10;97.20;;;;;;5060026;28;20185;-75
2023/06/15 03:45:40;;;;;;;6.67;6.07;;;14.90;97.20;;;;;;5045397;28;20169;-69
2023/06/15 03:48:06;;;;;;;6.67;6.07;;;15.10;97.40;;;;;;5049994;28;20201;-66
2023/06/15 03:50:32;;;;;;;7.03;6.30;;;14.90;97.40;;;;;;5044204;28;20220;-69
2023/06/15 03:52:58;;;;;;;6.00;5.50;;;14.90;97.20;;;;;;5046550;28;20178;-69
2023/06/15 03:55:25;;;;;;;7.23;6.53;;;14.80;97.40;;;;;;5045501;28;20185;-69
2023/06/15 03:57:51;;;;;;;6.43;5.93;;;14.90;97.70;;;;;;5045525;28;20188;-67
2023/06/15 04:00:16;;;;;;;7.20;6.50;;;14.70;97.60;;;;;;5045646;28;20181;-69
2023/06/15 04:02:42;;;;;;;6.77;6.27;;;14.80;98.00;;;;;;5044786;28;20446;-65
2023/06/15 04:05:09;;;;;;;7.60;6.97;;;14.70;97.60;;;;;;5047486;28;20452;-65
2023/06/15 04:07:35;;;;;;;7.45;6.90;;;14.70;97.60;;;;;;5043698;28;20673;-68
2023/06/15 04:10:01;;;;;;;6.90;6.30;;;15.00;97.60;;;;;;5045219;28;20196;-66
2023/06/15 04:12:26;;;;;;;6.87;6.27;;;15.10;97.60;;;;;;5041064;28;20213;-66
2023/06/15 04:14:52;;;;;;;7.90;7.00;;;14.90;97.50;;;;;;5046009;28;20185;-66
2023/06/15 04:17:18;;;;;;;6.27;5.60;;;14.80;97.40;;;;;;5046531;28;20260;-67
2023/06/15 04:19:44;;;;;;;6.30;5.80;;;15.10;97.60;;;;;;5042383;28;20177;-66
2023/06/15 04:22:10;;;;;;;7.57;6.15;;;15.30;97.30;;;;;;5047675;28;20460;-67
2023/06/15 04:24:36;;;;;;;7.87;6.37;;;15.40;97.00;;;;;;5044842;28;20742;-65
2023/06/15 04:27:01;;;;;;;6.50;5.90;;;15.30;96.80;;;;;;5042830;28;21046;-65
2023/06/15 04:29:30;;;;;;;7.20;6.37;;;15.40;96.70;;;;;;5044960;28;20265;-67
2023/06/15 04:31:57;;;;;;;7.03;6.32;;;15.50;96.50;;;;;;5044292;28;20271;-66
2023/06/15 04:34:24;;;;;;;7.03;6.32;;;15.60;96.20;;;;;;5045358;28;20548;-69
2023/06/15 04:36:50;;;;;;;8.55;7.85;;;15.30;96.00;;;;;;5045270;28;20190;-67
2023/06/15 04:39:16;;;;;;;6.40;5.82;;;15.70;96.10;;;;;;5046624;28;20719;-66
2023/06/15 04:41:42;;;;;;;7.72;5.90;;;15.60;95.70;;;;;;5044444;28;20209;-67
2023/06/15 04:44:08;;;;;;;7.27;6.50;;;15.80;95.70;;;;;;5042938;28;20193;-68
2023/06/15 04:46:36;;;;;;;9.05;6.30;;;16.10;95.40;;;;;;5046784;28;20247;-69
2023/06/15 04:49:03;;;;;;;6.50;6.00;;;16.10;95.00;;;;;;5044881;28;20243;-67
2023/06/15 04:51:30;;;;;;;6.53;5.97;;;16.50;94.60;;;;;;5044767;28;20205;-68
2023/06/15 04:53:57;;;;;;;7.53;6.85;;;16.70;94.10;;;;;;5039532;28;20280;-67
2023/06/15 04:56:23;;;;;;;7.10;6.40;;;16.50;93.50;;;;;;5044982;28;20299;-67
2023/06/15 04:58:49;;;;;;;6.70;6.10;;;17.10;93.10;;;;;;5048484;28;20665;-68
2023/06/15 05:01:14;;;;;;;7.23;6.63;;;17.30;92.70;;;;;;5047271;28;20460;-67
2023/06/15 05:03:41;;;;;;;6.87;6.27;;;17.40;92.40;;;;;;5042851;28;20190;-72
2023/06/15 05:06:07;;;;;;;7.47;6.78;;;17.50;91.90;;;;;;5040897;28;21192;-74
2023/06/15 05:08:34;;;;;;;8.07;6.30;;;17.70;91.60;;;;;;5044062;28;20189;-74
2023/06/15 05:11:00;;;;;;;7.03;6.32;;;17.80;91.60;;;;;;5044139;28;20738;-77
2023/06/15 05:13:26;;;;;;;6.93;6.32;;;17.90;91.30;;;;;;5041964;28;20186;-72
2023/06/15 05:15:52;;;;;;;6.70;6.20;;;18.10;90.20;;;;;;5041477;28;20195;-70
2023/06/15 05:18:19;;;;;;;6.00;5.60;;;18.20;90.00;;;;;;5045103;28;21048;-69
2023/06/15 05:20:45;;;;;;;6.93;6.30;;;18.40;89.30;;;;;;5044212;28;20197;-70
2023/06/15 05:23:11;;;;;;;7.10;5.93;;;18.50;89.10;;;;;;5046861;28;20677;-68
2023/06/15 05:25:37;;;;;;;6.70;6.10;;;18.50;87.60;;;;;;5040777;28;20440;-69
2023/06/15 05:28:03;;;;;;;7.83;7.07;;;18.60;87.80;;;;;;5040194;28;20231;-72
2023/06/15 05:30:29;;;;;;;7.27;6.67;;;18.60;88.20;;;;;;5041928;28;20460;-70
2023/06/15 05:32:55;;;;;;;7.20;6.50;;;18.60;87.50;;;;;;5044019;28;20827;-70
2023/06/15 05:35:21;;;;;;;6.43;5.90;;;18.70;87.70;;;;;;5042283;28;20186;-71
2023/06/15 05:37:47;;;;;;;6.57;6.03;;;18.70;87.60;;;;;;5046004;28;20439;-72
2023/06/15 05:40:13;;;;;;;8.00;6.40;;;18.80;86.80;;;;;;5045477;28;20185;-70
2023/06/15 05:42:39;;;;;;;8.03;6.80;;;18.50;87.10;;;;;;5044606;28;20182;-72
2023/06/15 05:45:05;;;;;;;7.00;6.40;;;18.80;87.80;;;;;;5042188;28;20578;-72
2023/06/15 05:47:34;;;;;;;6.72;6.22;;;18.80;87.00;;;;;;5046550;28;20441;-70
2023/06/15 05:50:00;;;;;;;6.30;5.70;;;18.90;86.90;;;;;;5043806;28;20200;-71
2023/06/15 05:52:25;;;;;;;6.47;5.77;;;19.10;86.40;;;;;;5044973;28;20213;-71
2023/06/15 05:54:51;;;;;;;7.30;6.60;;;19.10;84.90;;;;;;5042563;28;20184;-71
2023/06/15 05:57:17;;;;;;;6.83;6.27;;;19.20;85.50;;;;;;5045314;28;20173;-72
2023/06/15 05:59:46;;;;;;;6.13;5.63;;;19.30;85.20;;;;;;5044739;28;20178;-71
2023/06/15 06:02:12;;;;;;;8.88;6.25;;;19.40;84.00;;;;;;5043008;28;20206;-71
2023/06/15 06:04:38;;;;;;;8.88;6.90;;;19.40;82.70;;;;;;5042100;28;20681;-72
2023/06/15 06:07:07;;;;;;;8.30;6.43;;;19.60;83.30;;;;;;5044002;28;20189;-72
2023/06/15 06:09:33;;;;;;;7.10;6.50;;;19.40;83.20;;;;;;5042729;28;20672;-71
2023/06/15 06:12:00;;;;;;;7.25;6.65;;;19.40;83.00;;;;;;5041235;28;20706;-70
2023/06/15 06:14:26;;;;;;;6.95;6.45;;;19.50;82.70;;;;;;5043547;28;20185;-71
2023/06/15 06:16:52;;;;;;;8.82;6.80;;;19.50;81.70;;;;;;5043895;28;20182;-73
2023/06/15 06:19:18;;;;;;;7.10;6.53;;;19.60;82.10;;;;;;5042863;28;20662;-72
2023/06/15 06:21:43;;;;;;;9.03;7.33;;;19.60;81.80;;;;;;5045140;28;20250;-73
2023/06/15 06:24:09;;;;;;;9.13;7.43;;;19.80;81.20;;;;;;5043958;28;20654;-73
2023/06/15 06:26:35;;;;;;;7.17;6.50;;;19.90;80.80;;;;;;5042818;28;20672;-79
2023/06/15 06:29:01;;;;;;;9.00;6.60;;;20.20;79.50;;;;;;5048578;28;20186;-75
2023/06/15 06:31:26;;;;;;;6.60;6.03;;;20.20;78.40;;;;;;5050741;28;20266;-71
2023/06/15 06:33:52;;;;;;;6.03;5.60;;;20.20;78.00;;;;;;5047493;28;20226;-71
2023/06/15 06:36:18;;;;;;;6.60;6.00;;;20.20;77.70;;;;;;5046802;28;20212;-72
2023/06/15 06:38:43;;;;;;;6.80;6.20;;;20.20;78.00;;;;;;5044451;28;20174;-72
2023/06/15 06:41:09;;;;;;;6.90;6.30;;;20.90;78.60;;;;;;5044318;28;20209;-72
2023/06/15 06:43:35;;;;;;;6.70;6.10;;;20.30;76.90;;;;;;5044290;28;20193;-72
2023/06/15 06:46:01;;;;;;;6.20;5.70;;;19.30;75.00;;;;;;5040594;28;20186;-72
2023/06/15 06:48:27;;;;;;;7.50;6.40;;;20.40;75.80;;;;;;5047653;28;20449;-71
2023/06/15 06:50:53;;;;;;;8.03;5.87;;;20.50;75.70;;;;;;5046427;28;20209;-72
2023/06/15 06:53:18;;;;;;;6.77;6.10;;;20.50;75.80;;;;;;5047607;28;20186;-72
2023/06/15 06:55:45;;;;;;;6.40;5.80;;;20.70;75.40;;;;;;5043756;28;20178;-71
2023/06/15 06:58:11;;;;;;;6.50;5.90;;;20.90;74.50;;;;;;5050023;28;20181;-72
2023/06/15 07:00:36;;;;;;;7.90;6.30;;;20.90;73.50;;;;;;5047702;28;20537;-69
2023/06/15 07:03:02;;;;;;;6.80;6.13;;;21.00;74.30;;;;;;5046572;28;20960;-69
2023/06/15 07:05:28;;;;;;;6.17;5.70;;;22.40;72.30;;;;;;5045819;28;20598;-71
2023/06/15 07:07:53;;;;;;;6.10;5.60;;;23.70;66.50;;;;;;5046604;28;20786;-71
2023/06/15 07:10:19;;;;;;;7.70;6.43;;;26.30;60.90;;;;;;5046440;28;20272;-72
2023/06/15 07:12:45;;;;;;;6.10;5.50;;;27.80;54.70;;;;;;5049606;28;20299;-72
2023/06/15 07:15:10;;;;;;;6.43;5.77;;;29.30;51.40;;;;;;5049005;28;20189;-72
2023/06/15 07:17:36;;;;;;;5.83;5.43;;;30.60;48.10;;;;;;5048330;28;20185;-72
2023/06/15 07:20:02;;;;;;;6.83;6.23;;;30.80;46.00;;;;;;5045968;28;20199;-71
2023/06/15 07:22:28;;;;;;;5.70;5.13;;;31.50;44.20;;;;;;5058881;28;20198;-67
2023/06/15 07:24:54;;;;;;;7.83;7.17;;;32.60;43.20;;;;;;5044304;28;20443;-72
2023/06/15 07:27:20;;;;;;;6.10;5.60;;;33.80;40.10;;;;;;5044818;28;20193;-74
2023/06/15 07:29:46;;;;;;;6.80;6.23;;;33.70;38.60;;;;;;5049782;28;20181;-69
2023/06/15 07:32:11;;;;;;;8.73;6.20;;;34.50;38.20;;;;;;5044654;28;20474;-67
2023/06/15 07:34:37;;;;;;;6.40;5.80;;;34.10;36.50;;;;;;5046013;28;20881;-71
2023/06/15 07:37:02;;;;;;;7.10;6.60;;;33.10;38.60;;;;;;5047910;28;20213;-67
2023/06/15 07:39:29;;;;;;;7.00;6.50;;;34.10;37.30;;;;;;5044334;28;20186;-66
2023/06/15 07:41:55;;;;;;;6.27;5.77;;;34.70;36.60;;;;;;5046329;28;20205;-67
2023/06/15 07:44:21;;;;;;;6.80;6.30;;;36.10;34.80;;;;;;5043608;28;20435;-68
2023/06/15 07:46:47;;;;;;;5.67;5.20;;;35.20;34.50;;;;;;5046363;28;20471;-67
2023/06/15 07:49:12;;;;;;;8.40;5.90;;;36.00;34.20;;;;;;5045439;28;20474;-70
2023/06/15 07:51:38;;;;;;;5.80;5.20;;;35.80;33.40;;;;;;5043618;28;20275;-71
2023/06/15 07:54:04;;;;;;;6.50;5.90;;;36.80;33.50;;;;;;5045535;28;20189;-68
2023/06/15 07:56:30;;;;;;;7.17;6.20;;;36.70;32.10;;;;;;5045483;28;20867;-68
2023/06/15 07:58:56;;;;;;;6.00;5.50;;;36.50;32.80;;;;;;5043744;28;20178;-70
2023/06/15 08:01:21;;;;;;;5.90;5.40;;;36.40;32.40;;;;;;5042646;28;20189;-68
2023/06/15 08:03:47;;;;;;;5.97;5.57;;;37.90;31.80;;;;;;5047808;28;20232;-71
2023/06/15 08:06:12;;;;;;;5.80;5.30;;;37.10;31.20;;;;;;5041045;28;20182;-71
2023/06/15 08:08:38;;;;;;;5.33;5.03;;;37.10;31.70;;;;;;5046904;28;20192;-71
2023/06/15 08:11:06;;;;;;;6.10;5.53;;;37.30;31.10;;;;;;5045071;28;20217;-71
2023/06/15 08:13:32;;;;;;;5.67;5.37;;;36.00;31.80;;;;;;5041181;28;20213;-69
2023/06/15 08:15:59;;;;;;;5.90;5.40;;;36.20;32.50;;;;;;5044080;28;20541;-70
2023/06/15 08:18:26;;;;;;;6.47;5.87;;;36.30;32.50;;;;;;5047179;28;20182;-71
2023/06/15 08:20:52;;;;;;;6.30;5.80;;;35.30;33.40;;;;;;5045845;28;20455;-74
2023/06/15 08:23:17;;;;;;;6.50;5.63;;;33.70;33.40;;;;;;5044700;28;20448;-73
2023/06/15 08:25:43;;;;;;;6.20;5.80;;;34.10;34.70;;;;;;5047521;28;20461;-69
2023/06/15 08:28:09;;;;;;;9.33;8.53;;;34.50;34.00;;;;;;5045832;28;20267;-69
2023/06/15 08:30:35;;;;;;;7.07;6.47;;;34.80;34.20;;;;;;5048215;28;20451;-70
2023/06/15 08:33:01;;;;;;;6.00;5.53;;;35.50;33.30;;;;;;5046547;28;20486;-69
2023/06/15 08:35:26;;;;;;;7.10;5.07;;;36.40;32.10;;;;;;5045034;28;20193;-69
2023/06/15 08:37:52;;;;;;;6.13;5.73;;;35.30;32.20;;;;;;5042063;28;20178;-69
2023/06/15 08:40:19;;;;;;;5.70;5.20;;;36.30;31.80;;;;;;5043981;28;20681;-67
2023/06/15 08:42:45;;;;;;;8.03;5.60;;;36.40;32.20;;;;;;5046802;28;20840;-67
2023/06/15 08:45:11;;;;;;;5.93;5.53;;;37.40;31.40;;;;;;5044176;28;20432;-67
2023/06/15 08:47:37;;;;;;;8.50;6.43;;;38.50;30.20;;;;;;5042999;28;20440;-67
2023/06/15 08:50:05;;;;;;;6.30;5.80;;;37.10;29.90;;;;;;5043857;28;20689;-67
2023/06/15 08:52:33;;;;;;;5.67;5.30;;;37.80;30.30;;;;;;5045872;28;20241;-67
2023/06/15 08:55:01;;;;;;;6.50;6.00;;;37.90;29.90;;;;;;5045729;28;20452;-67
2023/06/15 08:57:27;;;;;;;5.90;5.50;;;38.10;30.00;;;;;;5046172;28;20927;-67
2023/06/15 08:59:53;;;;;;;7.63;6.77;;;37.60;30.70;;;;;;5044141;28;20928;-67
2023/06/15 09:02:21;;;;;;;6.50;5.87;;;37.90;29.80;;;;;;5046374;28;20491;-66
2023/06/15 09:04:52;;;;;;;6.70;6.07;;;38.00;30.30;;;;;;5041279;28;20448;-67
2023/06/15 09:07:18;;;;;;;6.13;5.63;;;38.10;30.20;;;;;;5045839;28;20436;-67
2023/06/15 09:10:18;;;;;;;6.23;5.83;;;38.10;29.10;;;;;;5044507;28;20444;-67
2023/06/15 09:12:50;;;;;;;6.07;5.57;;;37.80;29.80;;;;;;5042606;28;20471;-68
2023/06/15 09:15:20;;;;;;;6.20;5.70;;;37.90;29.30;;;;;;5044837;28;20444;-67
2023/06/15 09:17:49;;;;;;;6.57;6.00;;;38.00;29.90;;;;;;5042272;28;20959;-67
2023/06/15 09:20:15;;;;;;;7.47;6.87;;;38.50;29.10;;;;;;5041831;28;20937;-68
2023/06/15 09:22:45;;;;;;;6.00;5.60;;;38.50;29.40;;;;;;5045623;28;20440;-67
2023/06/15 09:25:16;;;;;;;6.47;5.97;;;38.00;29.40;;;;;;5046450;28;20189;-67
2023/06/15 09:28:02;;;;;;;6.13;5.60;;;36.90;30.60;;;;;;5049006;28;20439;-67
2023/06/15 09:30:32;;;;;;;6.37;5.77;;;38.10;29.70;;;;;;5036653;28;20463;-68
2023/06/15 09:33:18;;;;;;;6.37;5.87;;;38.30;29.10;;;;;;5048235;28;20479;-68
2023/06/15 09:35:59;;;;;;;6.67;6.17;;;38.00;28.40;;;;;;5042930;28;20550;-68
2023/06/15 09:38:26;;;;;;;5.90;5.50;;;37.70;29.10;;;;;;5043442;28;20485;-67
2023/06/15 09:40:53;;;;;;;6.60;6.10;;;37.90;29.60;;;;;;5045035;28;20884;-67
2023/06/15 09:43:19;;;;;;;6.10;5.70;;;39.10;28.50;;;;;;5043942;28;20444;-67
2023/06/15 09:45:52;;;;;;;5.63;5.17;;;38.20;28.10;;;;;;5045601;28;20873;-68
2023/06/15 09:48:18;;;;;;;6.10;5.60;;;37.90;28.20;;;;;;5044986;28;20800;-67
2023/06/15 09:50:49;;;;;;;5.20;4.83;;;37.40;28.40;;;;;;5043901;28;20471;-67
2023/06/15 09:53:17;;;;;;;5.87;5.30;;;38.00;28.80;;;;;;5045846;28;20186;-68
2023/06/15 09:55:45;;;;;;;5.50;5.10;;;38.00;28.80;;;;;;5045457;28;20488;-69
2023/06/15 09:58:11;;;;;;;5.30;5.00;;;37.90;27.90;;;;;;5044345;28;20654;-68
2023/06/15 10:00:37;;;;;;;5.63;5.23;;;38.30;27.60;;;;;;5045042;28;20650;-67
2023/06/15 10:03:05;;;;;;;5.50;5.00;;;38.70;27.10;;;;;;5048531;28;20446;-68
2023/06/15 10:05:32;;;;;;;5.37;4.83;;;37.60;27.20;;;;;;5046463;28;20250;-68
2023/06/15 10:08:01;;;;;;;4.63;4.33;;;38.80;27.20;;;;;;5050193;28;20516;-68
2023/06/15 10:10:29;;;;;;;5.37;4.97;;;38.20;27.20;;;;;;5048488;28;20457;-68
2023/06/15 10:13:00;;;;;;;5.17;4.77;;;37.20;27.50;;;;;;5047781;28;20541;-67
2023/06/15 10:15:28;;;;;;;5.20;4.80;;;37.20;27.50;;;;;;5049494;28;21055;-68
2023/06/15 10:17:56;;;;;;;4.60;4.30;;;37.10;27.20;;;;;;5050162;28;20459;-68
2023/06/15 10:20:23;;;;;;;5.33;4.83;;;36.80;27.70;;;;;;5049094;28;20443;-68
2023/06/15 10:23:07;;;;;;;5.47;5.07;;;36.70;28.20;;;;;;5049466;28;20432;-68
2023/06/15 10:25:33;;;;;;;5.27;4.77;;;35.50;28.60;;;;;;5047559;28;20452;-68
2023/06/15 10:28:09;;;;;;;5.13;4.83;;;36.40;28.50;;;;;;5049149;28;20493;-67
2023/06/15 10:30:46;;;;;;;4.67;4.07;;;35.60;28.40;;;;;;5050212;28;20455;-68
2023/06/15 10:33:35;;;;;;;6.47;5.23;;;35.40;27.90;;;;;;5050082;28;20471;-69
2023/06/15 10:36:09;;;;;;;5.00;4.70;;;35.50;27.50;;;;;;5049577;28;20436;-69
2023/06/15 10:38:38;;;;;;;4.60;4.30;;;36.00;27.60;;;;;;5051095;28;20454;-69
2023/06/15 10:41:05;;;;;;;4.07;3.83;;;36.00;27.20;;;;;;5049164;28;20453;-68
2023/06/15 10:43:30;;;;;;;5.13;4.73;;;35.50;28.10;;;;;;5044242;28;20971;-69
2023/06/15 10:45:56;;;;;;;5.53;5.13;;;34.50;28.80;;;;;;5048575;28;20481;-69
2023/06/15 10:48:27;;;;;;;5.40;5.00;;;35.80;28.40;;;;;;5050644;28;20182;-68
2023/06/15 10:51:15;;;;;;;4.97;4.57;;;36.00;28.30;;;;;;5046250;28;20892;-68
2023/06/15 10:53:42;;;;;;;6.53;5.93;;;35.30;28.50;;;;;;5047648;28;20447;-66
2023/06/15 10:56:16;;;;;;;4.90;4.60;;;34.30;29.00;;;;;;5047323;28;20811;-67
2023/06/15 10:58:54;;;;;;;5.07;4.60;;;33.00;30.50;;;;;;5042902;28;20482;-67
2023/06/15 11:01:34;;;;;;;5.20;4.70;;;31.50;31.20;;;;;;5044833;28;20818;-67
2023/06/15 11:04:02;;;;;;;4.77;4.40;;;30.90;31.20;;;;;;5048843;28;20785;-67
2023/06/15 11:06:35;;;;;;;4.90;4.50;;;31.90;30.30;;;;;;5046878;28;21124;-67
2023/06/15 11:09:14;;;;;;;5.50;4.30;;;33.00;29.80;;;;;;5046929;28;20937;-68
2023/06/15 11:11:43;;;;;;;5.60;4.60;;;33.60;28.70;;;;;;5042612;28;20468;-68
2023/06/15 11:14:22;;;;;;;4.60;4.30;;;34.20;28.60;;;;;;5049011;28;20778;-68
2023/06/15 11:17:06;;;;;;;5.47;5.07;;;34.90;28.60;;;;;;5044398;28;20999;-68
2023/06/15 11:19:40;;;;;;;6.17;5.67;;;34.30;29.40;;;;;;5047713;28;20815;-68
2023/06/15 11:22:07;;;;;;;6.13;5.60;;;34.00;29.70;;;;;;5048836;28;20558;-68
2023/06/15 11:24:38;;;;;;;5.67;5.20;;;33.20;30.50;;;;;;5048152;28;20440;-68
2023/06/15 11:27:12;;;;;;;5.50;4.83;;;31.80;31.50;;;;;;5050022;28;20446;-67
2023/06/15 11:29:43;;;;;;;5.00;4.60;;;30.80;32.80;;;;;;5048310;28;20479;-67
2023/06/15 11:32:10;;;;;;;5.23;4.73;;;31.50;32.00;;;;;;5039644;28;20601;-71
2023/06/15 11:34:36;;;;;;;5.67;5.27;;;31.40;32.50;;;;;;5043779;28;20893;-70
2023/06/15 11:37:03;;;;;;;5.90;5.30;;;32.40;32.10;;;;;;5043120;28;20527;-70
2023/06/15 11:39:30;;;;;;;5.50;4.90;;;32.70;30.80;;;;;;5044153;28;20526;-70
2023/06/15 11:41:57;;;;;;;5.90;5.00;;;32.80;30.50;;;;;;5050026;28;20563;-72
2023/06/15 11:44:26;;;;;;;5.33;4.27;;;31.50;31.70;;;;;;5041351;28;20443;-71
2023/06/15 11:46:56;;;;;;;4.70;4.40;;;30.40;32.50;;;;;;5045467;28;21054;-71
2023/06/15 11:49:23;;;;;;;5.73;4.70;;;29.90;32.80;;;;;;5042009;28;20448;-71
2023/06/15 11:51:52;;;;;;;4.90;4.50;;;29.70;33.70;;;;;;5050057;28;20579;-68
2023/06/15 11:54:22;;;;;;;5.60;5.13;;;29.40;34.60;;;;;;5045904;28;20428;-67
2023/06/15 11:56:48;;;;;;;4.73;4.33;;;29.00;34.70;;;;;;5045623;28;20446;-67
2023/06/15 11:59:15;;;;;;;4.70;4.30;;;28.90;34.20;;;;;;5044430;28;20502;-66
2023/06/15 12:01:42;;;;;;;5.07;4.67;;;28.50;33.70;;;;;;5040587;28;20499;-67
2023/06/15 12:04:15;;;;;;;6.37;4.93;;;28.60;34.70;;;;;;5044708;28;20461;-69
2023/06/15 12:06:48;;;;;;;11.13;4.93;;;28.60;35.50;;;;;;5042242;28;20873;-68
2023/06/15 12:09:18;;;;;;;6.30;5.03;;;28.10;35.50;;;;;;5043643;28;20564;-66
2023/06/15 12:11:44;;;;;;;4.70;4.30;;;28.00;35.60;;;;;;5041513;28;21004;-71
2023/06/15 12:14:12;;;;;;;5.30;4.90;;;27.90;36.50;;;;;;5044029;28;20438;-69
2023/06/15 12:16:38;;;;;;;5.80;5.20;;;27.70;37.60;;;;;;5045868;28;20433;-64
2023/06/15 12:19:08;;;;;;;5.67;5.30;;;27.50;38.20;;;;;;5045086;28;20523;-68
2023/06/15 12:21:37;;;;;;;5.20;4.70;;;27.60;38.30;;;;;;5043767;28;21011;-68
2023/06/15 12:24:15;;;;;;;8.03;5.30;;;27.60;37.10;;;;;;5041867;28;20457;-68
2023/06/15 12:26:41;;;;;;;5.20;4.80;;;27.50;37.70;;;;;;5040603;28;20440;-70
2023/06/15 12:29:15;;;;;;;4.73;4.40;;;27.60;38.20;;;;;;5043211;28;20445;-67
2023/06/15 12:31:41;;;;;;;5.43;4.80;;;27.60;39.20;;;;;;5044588;28;20471;-64
2023/06/15 12:34:09;;;;;;;5.73;5.30;;;27.30;39.10;;;;;;5041957;28;21089;-67
2023/06/15 12:36:39;;;;;;;5.27;4.70;;;27.50;39.10;;;;;;5044107;28;21326;-65
2023/06/15 12:39:09;;;;;;;4.70;4.40;;;27.50;38.10;;;;;;5042203;28;20925;-67
2023/06/15 12:41:42;;;;;;;7.40;5.50;;;27.30;38.70;;;;;;5043985;28;20993;-67
2023/06/15 12:44:11;;;;;;;5.00;4.50;;;27.20;38.80;;;;;;5037785;28;20475;-66
2023/06/15 12:46:39;;;;;;;4.73;4.43;;;27.20;38.90;;;;;;5043867;28;20981;-65
2023/06/15 12:49:09;;;;;;;5.07;4.77;;;27.10;39.20;;;;;;5042138;28;20543;-65
2023/06/15 12:51:36;;;;;;;6.90;6.40;;;27.30;39.60;;;;;;5049495;28;20498;-62